Time;durP1;ratioP1;P1;durP2;ratioP2;P2;SDS_P1;SDS_P2;PMS_P1;PMS_P2;Temp;Humidity;BMP_temperature;BMP_pressure;BME280_temperature;BME280_humidity;BME280_pressure;Samples;Min_cycle;Max_cycle;Signal;HPM_P1;HPM_P2
2023/02/19 00:03:20;;;;;;;3.15;1.58;;;;;;;;;;10478306;28;20067;-75
2023/02/19 00:08:23;;;;;;;;;;;;;;;;;;10482627;28;20129;-78
2023/02/19 00:13:25;;;;;;;2.38;1.33;;;;;;;;;;10485451;28;19921;-78
2023/02/19 00:18:29;;;;;;;1.55;1.02;;;;;;;;;;10481905;28;20554;-77
2023/02/19 00:23:32;;;;;;;0.88;0.82;;;;;;;;;;10483566;28;20049;-78
2023/02/19 00:28:34;;;;;;;1.10;0.95;;;;;;;;;;10474058;28;20502;-78
2023/02/19 00:33:38;;;;;;;2.10;1.40;;;;;;;;;;10480779;28;20113;-78
2023/02/19 00:38:41;;;;;;;2.90;1.10;;;;;;;;;;10472596;28;20041;-78
2023/02/19 00:43:44;;;;;;;1.35;1.00;;;;;;;;;;10459812;28;20136;-76
2023/02/19 00:48:49;;;;;;;1.77;0.80;;;;;;;;;;10481576;28;20036;-76
2023/02/19 00:53:52;;;;;;;1.92;1.20;;;;;;;;;;10482460;28;20131;-77
2023/02/19 00:58:56;;;;;;;1.83;0.90;;;;;;;;;;10474347;28;20048;-76
2023/02/19 01:03:58;;;;;;;;;;;;;;;;;;10478907;28;20040;-76
2023/02/19 01:09:03;;;;;;;1.25;0.93;;;;;;;;;;10482592;28;20360;-77
2023/02/19 01:14:06;;;;;;;1.75;0.90;;;;;;;;;;10479314;28;20056;-77
2023/02/19 01:19:08;;;;;;;1.95;0.93;;;;;;;;;;10484965;28;20040;-77
2023/02/19 01:24:13;;;;;;;2.05;1.40;;;;;;;;;;10473562;28;20078;-78
2023/02/19 01:29:15;;;;;;;1.35;1.00;;;;;;;;;;10474284;28;20052;-79
2023/02/19 01:34:18;;;;;;;1.75;1.27;;;;;;;;;;10463265;28;20090;-78
2023/02/19 01:39:22;;;;;;;1.38;1.00;;;;;;;;;;10487793;28;20105;-78
2023/02/19 01:44:44;;;;;;;1.67;1.17;;;;;;;;;;10477565;28;20044;-78
2023/02/19 01:49:48;;;;;;;2.00;1.10;;;;;;;;;;10476221;28;20051;-77
2023/02/19 01:54:53;;;;;;;2.00;1.15;;;;;;;;;;10479688;28;20056;-78
2023/02/19 01:59:57;;;;;;;5.88;1.35;;;;;;;;;;10479710;28;20110;-77
2023/02/19 02:05:00;;;;;;;3.22;1.27;;;;;;;;;;10482604;28;20078;-78
2023/02/19 02:10:19;;;;;;;1.92;1.42;;;;;;;;;;10475380;28;20094;-78
2023/02/19 02:15:24;;;;;;;1.42;1.10;;;;;;;;;;10476757;28;20054;-77
2023/02/19 02:20:36;;;;;;;2.90;1.40;;;;;;;;;;10474269;28;20539;-78
2023/02/19 02:25:53;;;;;;;2.45;1.38;;;;;;;;;;10468482;28;20037;-77
2023/02/19 02:30:59;;;;;;;1.38;1.10;;;;;;;;;;10478816;28;20045;-77
2023/02/19 02:36:05;;;;;;;3.40;1.60;;;;;;;;;;10476510;28;20380;-78
2023/02/19 02:41:08;;;;;;;3.25;1.35;;;;;;;;;;10477825;28;20047;-78
2023/02/19 02:46:17;;;;;;;2.78;1.52;;;;;;;;;;10484338;28;20059;-75
2023/02/19 02:51:22;;;;;;;2.38;1.73;;;;;;;;;;10482914;28;20127;-77
2023/02/19 02:56:24;;;;;;;;;;;;;;;;;;10486017;28;20135;-79
2023/02/19 03:06:50;;;;;;;3.83;1.55;;;;;;;;;;10491791;28;20044;-77
2023/02/19 03:22:38;;;;;;;4.07;1.80;;;;;;;;;;10482962;28;20047;-78
2023/02/19 03:27:42;;;;;;;3.25;1.58;;;;;;;;;;10486776;28;20123;-79
2023/02/19 03:32:48;;;;;;;3.05;1.67;;;;;;;;;;10480415;28;20040;-78
2023/02/19 03:37:54;;;;;;;1.80;1.40;;;;;;;;;;10484090;28;20413;-79
2023/02/19 03:43:01;;;;;;;1.55;1.20;;;;;;;;;;10477515;28;20048;-78
2023/02/19 03:48:15;;;;;;;2.78;1.55;;;;;;;;;;10480779;28;20060;-78
2023/02/19 03:53:26;;;;;;;3.95;1.73;;;;;;;;;;10480483;28;20039;-78
2023/02/19 03:58:32;;;;;;;5.40;2.55;;;;;;;;;;10479900;28;20569;-78
2023/02/19 04:03:37;;;;;;;1.48;1.10;;;;;;;;;;10482246;28;20045;-78
2023/02/19 04:08:42;;;;;;;4.72;2.00;;;;;;;;;;10486326;28;20102;-77
2023/02/19 04:13:46;;;;;;;3.85;2.35;;;;;;;;;;10485505;28;20474;-78
2023/02/19 04:18:53;;;;;;;3.38;1.40;;;;;;;;;;10483589;28;20073;-76
2023/02/19 04:23:58;;;;;;;3.42;1.73;;;;;;;;;;10460054;28;20259;-78
2023/02/19 04:29:01;;;;;;;3.33;1.60;;;;;;;;;;10479530;28;20040;-78
2023/02/19 04:34:05;;;;;;;3.58;1.83;;;;;;;;;;10481339;28;20082;-78
2023/02/19 04:39:07;;;;;;;4.05;1.83;;;;;;;;;;10482187;28;20048;-78
2023/02/19 04:44:10;;;;;;;4.25;1.77;;;;;;;;;;10482584;28;20048;-78
2023/02/19 04:49:14;;;;;;;2.78;1.60;;;;;;;;;;10485692;28;20048;-79
2023/02/19 04:54:17;;;;;;;1.42;1.05;;;;;;;;;;10479199;28;20048;-79
2023/02/19 04:59:19;;;;;;;3.10;1.52;;;;;;;;;;10480006;28;20048;-77
2023/02/19 05:04:23;;;;;;;4.30;1.00;;;;;;;;;;10474409;28;20051;-78
2023/02/19 05:09:26;;;;;;;;;;;;;;;;;;10465533;28;20707;-79
2023/02/19 05:14:28;;;;;;;3.65;1.80;;;;;;;;;;10466075;28;19924;-76
2023/02/19 05:19:32;;;;;;;2.22;1.13;;;;;;;;;;10474527;28;20049;-76
2023/02/19 05:24:35;;;;;;;;;;;;;;;;;;10477448;28;20043;-78
2023/02/19 05:29:37;;;;;;;1.92;1.27;;;;;;;;;;10482221;28;19929;-76
2023/02/19 05:34:41;;;;;;;3.20;1.60;;;;;;;;;;10476608;28;20040;-77
2023/02/19 05:39:44;;;;;;;3.67;1.65;;;;;;;;;;10479488;28;20543;-78
2023/02/19 05:44:47;;;;;;;2.92;1.65;;;;;;;;;;10477602;28;20048;-78
2023/02/19 05:49:51;;;;;;;1.45;1.05;;;;;;;;;;10474971;28;20040;-78
2023/02/19 05:54:53;;;;;;;2.90;1.70;;;;;;;;;;10477440;28;20048;-77
2023/02/19 05:59:56;;;;;;;2.85;1.25;;;;;;;;;;10474308;28;20045;-77
2023/02/19 06:05:00;;;;;;;2.88;1.42;;;;;;;;;;10474699;28;20035;-78
2023/02/19 06:10:02;;;;;;;1.27;1.17;;;;;;;;;;10482479;28;20392;-77
2023/02/19 06:15:06;;;;;;;2.28;1.08;;;;;;;;;;10473075;28;20085;-78
2023/02/19 06:20:10;;;;;;;2.50;1.30;;;;;;;;;;10471700;28;20495;-78
2023/02/19 06:25:13;;;;;;;0.82;0.82;;;;;;;;;;10476847;28;20040;-76
2023/02/19 06:30:15;;;;;;;1.73;1.17;;;;;;;;;;10479269;28;20102;-77
2023/02/19 06:35:19;;;;;;;2.13;1.63;;;;;;;;;;10476864;28;20033;-77
2023/02/19 06:40:22;;;;;;;;;;;;;;;;;;10491174;28;20052;-78
2023/02/19 06:45:24;;;;;;;3.05;1.25;;;;;;;;;;10477265;28;19929;-78
2023/02/19 06:50:28;;;;;;;1.52;1.30;;;;;;;;;;10473117;28;20048;-78
2023/02/19 06:55:31;;;;;;;1.83;1.42;;;;;;;;;;10477586;28;23154;-78
2023/02/19 07:00:33;;;;;;;2.15;1.23;;;;;;;;;;10477733;28;20136;-76
2023/02/19 07:05:37;;;;;;;2.50;1.77;;;;;;;;;;10474097;28;20045;-77
2023/02/19 07:10:40;;;;;;;1.70;1.23;;;;;;;;;;10479118;28;20044;-78
2023/02/19 07:15:42;;;;;;;2.47;1.40;;;;;;;;;;10488447;28;20105;-78
2023/02/19 07:20:46;;;;;;;2.55;1.48;;;;;;;;;;10480938;28;20033;-78
2023/02/19 07:25:49;;;;;;;2.65;1.58;;;;;;;;;;10468044;28;20113;-77
2023/02/19 07:30:51;;;;;;;2.50;1.48;;;;;;;;;;10484468;28;20048;-75
2023/02/19 07:35:55;;;;;;;1.73;1.38;;;;;;;;;;10479932;28;20035;-78
2023/02/19 07:40:59;;;;;;;2.63;1.92;;;;;;;;;;10476020;28;20068;-77
2023/02/19 07:46:02;;;;;;;1.77;1.07;;;;;;;;;;10483996;28;20040;-78
2023/02/19 07:51:06;;;;;;;1.27;1.15;;;;;;;;;;10483050;28;20049;-78
2023/02/19 07:56:10;;;;;;;3.55;1.35;;;;;;;;;;10479299;28;20044;-78
2023/02/19 08:01:14;;;;;;;2.40;1.30;;;;;;;;;;10485124;28;20048;-79
2023/02/19 08:06:18;;;;;;;2.58;1.50;;;;;;;;;;10469496;28;20044;-77
2023/02/19 08:16:47;;;;;;;1.52;1.15;;;;;;;;;;10479247;28;20040;-78
2023/02/19 08:21:52;;;;;;;2.20;1.42;;;;;;;;;;10482892;28;20052;-77
2023/02/19 08:26:54;;;;;;;1.83;1.25;;;;;;;;;;10476830;28;20119;-78
2023/02/19 08:31:57;;;;;;;1.90;1.27;;;;;;;;;;10481396;28;20040;-79
2023/02/19 08:37:01;;;;;;;2.97;1.50;;;;;;;;;;10476426;28;20045;-78
2023/02/19 08:42:04;;;;;;;2.00;1.15;;;;;;;;;;10480408;28;20049;-77
2023/02/19 08:47:06;;;;;;;1.58;1.00;;;;;;;;;;10477326;28;20082;-77
2023/02/19 08:52:10;;;;;;;2.35;1.00;;;;;;;;;;10478720;28;21036;-77
2023/02/19 08:57:13;;;;;;;1.40;1.10;;;;;;;;;;10479403;28;20362;-77
2023/02/19 09:02:16;;;;;;;1.38;0.90;;;;;;;;;;10480089;28;20052;-78
2023/02/19 09:07:21;;;;;;;0.98;0.90;;;;;;;;;;10480250;28;20052;-79
2023/02/19 09:12:24;;;;;;;0.80;0.80;;;;;;;;;;10479067;28;20044;-78
2023/02/19 09:17:27;;;;;;;1.13;0.90;;;;;;;;;;10476155;28;20075;-77
2023/02/19 09:22:31;;;;;;;1.38;0.70;;;;;;;;;;10477764;28;20056;-78
2023/02/19 09:27:34;;;;;;;1.45;0.60;;;;;;;;;;10480408;28;20044;-78
2023/02/19 09:32:36;;;;;;;1.00;0.60;;;;;;;;;;10475917;28;20128;-77
2023/02/19 09:37:40;;;;;;;0.90;0.40;;;;;;;;;;10474946;28;20037;-78
2023/02/19 09:42:43;;;;;;;0.90;0.20;;;;;;;;;;10473592;28;20772;-77
2023/02/19 09:47:46;;;;;;;0.93;0.35;;;;;;;;;;10477157;28;20048;-77
2023/02/19 09:52:53;;;;;;;1.20;0.40;;;;;;;;;;10487026;28;20119;-77
2023/02/19 09:57:56;;;;;;;0.40;0.40;;;;;;;;;;10488572;28;20033;-78
2023/02/19 10:03:02;;;;;;;0.20;0.20;;;;;;;;;;10484643;28;20477;-77
2023/02/19 10:08:08;;;;;;;1.27;1.17;;;;;;;;;;10488898;28;20072;-77
2023/02/19 10:13:14;;;;;;;1.60;1.35;;;;;;;;;;10492233;28;20056;-77
2023/02/19 10:18:18;;;;;;;1.20;1.20;;;;;;;;;;10491562;28;20037;-75
2023/02/19 10:23:24;;;;;;;2.13;1.20;;;;;;;;;;10488852;28;20123;-79
2023/02/19 10:28:28;;;;;;;1.10;1.10;;;;;;;;;;10488614;28;20055;-78
2023/02/19 10:33:31;;;;;;;1.08;1.08;;;;;;;;;;10488988;28;20040;-77
2023/02/19 10:38:33;;;;;;;;;;;;;;;;;;10491709;28;20490;-77
2023/02/19 10:43:39;;;;;;;2.22;1.30;;;;;;;;;;10478628;28;19942;-78
2023/02/19 10:48:45;;;;;;;1.40;1.30;;;;;;;;;;10502434;28;20128;-78
2023/02/19 10:53:48;;;;;;;1.00;1.00;;;;;;;;;;10500488;28;20086;-77
2023/02/19 10:58:52;;;;;;;1.17;1.17;;;;;;;;;;10499918;28;20044;-77
2023/02/19 11:04:12;;;;;;;2.85;1.20;;;;;;;;;;10506076;28;20071;-77
2023/02/19 11:09:23;;;;;;;2.25;0.90;;;;;;;;;;10492313;28;20056;-76
2023/02/19 11:14:29;;;;;;;0.40;0.40;;;;;;;;;;10494138;28;20069;-78
2023/02/19 11:19:35;;;;;;;1.45;0.63;;;;;;;;;;10503574;28;20041;-77
2023/02/19 11:24:39;;;;;;;0.60;0.50;;;;;;;;;;10502922;28;20064;-77
2023/02/19 11:29:43;;;;;;;0.60;0.47;;;;;;;;;;10502202;28;20075;-76
2023/02/19 11:34:46;;;;;;;0.30;0.30;;;;;;;;;;10492091;28;20036;-77
2023/02/19 11:39:50;;;;;;;0.30;0.30;;;;;;;;;;10495616;28;20047;-77
2023/02/19 11:45:01;;;;;;;0.40;0.22;;;;;;;;;;10488327;28;20051;-78
2023/02/19 11:50:08;;;;;;;0.70;0.40;;;;;;;;;;10488995;28;20067;-76
2023/02/19 11:55:16;;;;;;;0.65;0.20;;;;;;;;;;10484975;28;20040;-78
2023/02/19 12:00:22;;;;;;;0.93;0.50;;;;;;;;;;10489183;28;20040;-77
2023/02/19 12:05:29;;;;;;;0.28;0.28;;;;;;;;;;10482852;28;20454;-79
2023/02/19 12:10:37;;;;;;;0.35;0.35;;;;;;;;;;10493052;28;20405;-78
2023/02/19 12:15:45;;;;;;;0.50;0.50;;;;;;;;;;10486060;28;20070;-78
2023/02/19 12:20:53;;;;;;;0.82;0.65;;;;;;;;;;10472637;28;20529;-79
2023/02/19 12:26:01;;;;;;;1.60;0.50;;;;;;;;;;10475592;28;20064;-79
2023/02/19 12:31:24;;;;;;;0.98;0.98;;;;;;;;;;10494146;28;20038;-77
2023/02/19 12:36:37;;;;;;;1.58;0.47;;;;;;;;;;10496109;28;20658;-78
2023/02/19 12:41:48;;;;;;;2.00;1.20;;;;;;;;;;10518571;28;20060;-78
2023/02/19 12:46:56;;;;;;;0.60;0.60;;;;;;;;;;10486240;28;20425;-79
2023/02/19 12:52:01;;;;;;;0.95;0.40;;;;;;;;;;10477557;28;20413;-77
2023/02/19 12:57:06;;;;;;;0.98;0.80;;;;;;;;;;10498573;28;20420;-76
2023/02/19 13:02:16;;;;;;;0.98;0.47;;;;;;;;;;10494084;28;20044;-76
2023/02/19 13:07:21;;;;;;;1.08;0.57;;;;;;;;;;10496822;28;20208;-76
2023/02/19 13:12:26;;;;;;;1.55;0.47;;;;;;;;;;10492947;28;20067;-77
2023/02/19 13:17:34;;;;;;;1.63;0.70;;;;;;;;;;10492332;28;20087;-78
2023/02/19 13:28:18;;;;;;;0.75;0.55;;;;;;;;;;10491551;28;20048;-79
2023/02/19 13:33:30;;;;;;;0.25;0.25;;;;;;;;;;10490472;28;20490;-78
2023/02/19 13:38:33;;;;;;;1.00;0.50;;;;;;;;;;10493060;28;20497;-78
2023/02/19 13:43:37;;;;;;;0.40;0.40;;;;;;;;;;10488526;28;20048;-78
2023/02/19 13:48:43;;;;;;;0.95;0.55;;;;;;;;;;10487410;28;20044;-77
2023/02/19 13:53:50;;;;;;;1.45;0.60;;;;;;;;;;10488069;28;20052;-75
2023/02/19 13:58:56;;;;;;;1.63;0.28;;;;;;;;;;10485090;28;20705;-77
2023/02/19 14:04:09;;;;;;;0.47;0.30;;;;;;;;;;10488039;28;20128;-77
2023/02/19 14:09:26;;;;;;;0.70;0.38;;;;;;;;;;10491488;28;20133;-78
2023/02/19 14:14:34;;;;;;;0.65;0.30;;;;;;;;;;10488101;28;20044;-78
2023/02/19 14:19:43;;;;;;;2.50;0.40;;;;;;;;;;10499864;28;20044;-78
2023/02/19 14:24:48;;;;;;;0.32;0.32;;;;;;;;;;10499486;28;20079;-78
2023/02/19 14:29:51;;;;;;;2.17;0.50;;;;;;;;;;10495327;28;20040;-78
2023/02/19 14:34:56;;;;;;;0.57;0.30;;;;;;;;;;10496744;28;20087;-78
2023/02/19 14:40:00;;;;;;;0.50;0.50;;;;;;;;;;10493912;28;20049;-78
2023/02/19 14:45:06;;;;;;;0.40;0.38;;;;;;;;;;10492892;28;20885;-78
2023/02/19 14:50:12;;;;;;;1.77;0.88;;;;;;;;;;10494956;28;20044;-79
2023/02/19 14:55:19;;;;;;;0.30;0.30;;;;;;;;;;10487585;28;20150;-79
2023/02/19 15:00:23;;;;;;;2.17;0.70;;;;;;;;;;10488895;28;20036;-78
2023/02/19 15:05:29;;;;;;;1.00;0.60;;;;;;;;;;10486494;28;20044;-78
2023/02/19 15:10:35;;;;;;;0.80;0.50;;;;;;;;;;10486640;28;20044;-78
2023/02/19 15:15:39;;;;;;;0.40;0.40;;;;;;;;;;10484116;28;20036;-79
2023/02/19 15:20:42;;;;;;;0.38;0.38;;;;;;;;;;10494774;28;20044;-77
2023/02/19 15:25:48;;;;;;;0.40;0.40;;;;;;;;;;10488854;28;20051;-78
2023/02/19 15:31:05;;;;;;;2.42;0.70;;;;;;;;;;10490007;28;20047;-77
2023/02/19 15:36:09;;;;;;;3.55;0.85;;;;;;;;;;10493643;28;20102;-77
2023/02/19 15:41:19;;;;;;;3.30;0.68;;;;;;;;;;10502906;28;20050;-79
2023/02/19 15:46:22;;;;;;;1.35;0.60;;;;;;;;;;10491280;28;20107;-77
2023/02/19 15:51:26;;;;;;;2.33;0.60;;;;;;;;;;10496965;28;20074;-78
2023/02/19 15:56:32;;;;;;;1.90;0.68;;;;;;;;;;10485848;28;20048;-77
2023/02/19 16:01:36;;;;;;;1.10;0.65;;;;;;;;;;10485799;28;20052;-80
2023/02/19 16:06:50;;;;;;;1.60;0.50;;;;;;;;;;10494527;28;20032;-78
2023/02/19 16:11:55;;;;;;;2.20;0.60;;;;;;;;;;10496492;28;20044;-77
2023/02/19 16:16:59;;;;;;;1.05;0.52;;;;;;;;;;10491057;28;20051;-80
2023/02/19 16:22:02;;;;;;;2.17;0.68;;;;;;;;;;10495291;28;20052;-78
2023/02/19 16:27:06;;;;;;;2.03;0.57;;;;;;;;;;10500042;28;20033;-77
2023/02/19 16:32:14;;;;;;;0.95;0.45;;;;;;;;;;10492226;28;20078;-78
2023/02/19 16:37:31;;;;;;;2.58;0.70;;;;;;;;;;10489364;28;20059;-78
2023/02/19 16:42:35;;;;;;;0.93;0.70;;;;;;;;;;10505496;28;20058;-79
2023/02/19 16:47:40;;;;;;;1.70;0.70;;;;;;;;;;10498373;28;20039;-79
2023/02/19 16:52:52;;;;;;;1.27;0.47;;;;;;;;;;10491248;28;20437;-78
2023/02/19 16:57:56;;;;;;;2.05;0.70;;;;;;;;;;10488637;28;20126;-77
2023/02/19 17:03:01;;;;;;;1.27;0.82;;;;;;;;;;10473267;28;20048;-78
2023/02/19 17:08:06;;;;;;;0.85;0.70;;;;;;;;;;10492267;28;20088;-77
2023/02/19 17:13:10;;;;;;;2.75;0.73;;;;;;;;;;10485890;28;20040;-77
2023/02/19 17:18:16;;;;;;;3.00;0.90;;;;;;;;;;10488967;28;20045;-78
2023/02/19 17:23:23;;;;;;;1.00;0.50;;;;;;;;;;10499427;28;20105;-78
2023/02/19 17:28:28;;;;;;;0.90;0.60;;;;;;;;;;10489979;28;20070;-77
2023/02/19 17:33:30;;;;;;;1.52;0.80;;;;;;;;;;10485076;28;20494;-77
2023/02/19 17:38:33;;;;;;;0.70;0.43;;;;;;;;;;10477751;28;20040;-77
2023/02/19 17:43:37;;;;;;;2.40;0.60;;;;;;;;;;10480995;28;20416;-77
2023/02/19 17:48:40;;;;;;;;;;;;;;;;;;10479302;28;20041;-77
2023/02/19 17:53:45;;;;;;;0.88;0.55;;;;;;;;;;10497399;28;19920;-77
2023/02/19 17:58:49;;;;;;;4.63;1.00;;;;;;;;;;10482741;28;20133;-77
2023/02/19 18:03:51;;;;;;;;;;;;;;;;;;10478766;28;20040;-79
2023/02/19 18:15:37;;;;;;;1.90;0.68;;;;;;;;;;10275332;28;20426;-78
2023/02/19 18:28:19;;;;;;;;;;;;;;;;;;;;;
2023/02/19 18:41:20;;;;;;;;;;;;;;;;;;;;;
2023/02/19 18:53:26;;;;;;;0.98;0.60;;;;;;;;;;10344995;28;20526;-77
2023/02/19 20:09:06;;;;;;;3.28;1.00;;;;;;;;;;10110989;29;20053;-78
2023/02/19 20:15:16;;;;;;;2.57;1.30;;;;;;;;;;10238395;28;20051;-78
2023/02/19 20:27:14;;;;;;;2.80;1.20;;;;;;;;;;10400336;28;20116;-77
2023/02/19 20:32:22;;;;;;;3.00;1.20;;;;;;;;;;10401343;28;20041;-78
2023/02/19 20:37:25;;;;;;;;;;;;;;;;;;10480429;28;20048;-76
2023/02/19 20:42:27;;;;;;;1.42;0.82;;;;;;;;;;10493139;28;20373;-77
2023/02/19 20:47:31;;;;;;;2.33;0.85;;;;;;;;;;10484007;28;20070;-78
2023/02/19 20:52:34;;;;;;;;;;;;;;;;;;10493138;28;20040;-77
2023/02/19 20:57:37;;;;;;;1.33;0.77;;;;;;;;;;10496023;28;19932;-78
2023/02/19 21:02:41;;;;;;;3.28;0.80;;;;;;;;;;10488660;28;20127;-78
2023/02/19 21:07:44;;;;;;;1.92;0.80;;;;;;;;;;10496276;28;20126;-78
2023/02/19 21:12:46;;;;;;;2.80;1.30;;;;;;;;;;10469805;28;20048;-78
2023/02/19 21:17:50;;;;;;;2.35;1.10;;;;;;;;;;10491014;28;20127;-77
2023/02/19 21:22:55;;;;;;;1.90;0.82;;;;;;;;;;10495885;28;20070;-77
2023/02/19 21:27:57;;;;;;;3.50;1.25;;;;;;;;;;10490321;28;20044;-77
2023/02/19 21:33:01;;;;;;;2.13;1.17;;;;;;;;;;10474127;28;20065;-78
2023/02/19 21:38:04;;;;;;;1.95;1.35;;;;;;;;;;10494853;28;20154;-78
2023/02/19 21:43:07;;;;;;;1.42;0.63;;;;;;;;;;10493356;28;20103;-78
2023/02/19 21:48:11;;;;;;;2.88;1.10;;;;;;;;;;10485051;28;20102;-78
2023/02/19 21:53:13;;;;;;;;;;;;;;;;;;10471665;28;20047;-79
2023/02/19 21:58:16;;;;;;;4.05;1.33;;;;;;;;;;10487211;28;19980;-77
2023/02/19 22:03:20;;;;;;;2.45;1.05;;;;;;;;;;10492983;28;20036;-78
2023/02/19 22:08:22;;;;;;;3.17;1.35;;;;;;;;;;10490348;28;20048;-77
2023/02/19 22:13:25;;;;;;;2.75;1.15;;;;;;;;;;10482276;28;20040;-78
2023/02/19 22:18:29;;;;;;;2.00;0.90;;;;;;;;;;10489126;28;20405;-79
2023/02/19 22:23:32;;;;;;;3.10;1.13;;;;;;;;;;10486738;28;20054;-77
2023/02/19 22:28:35;;;;;;;0.93;0.65;;;;;;;;;;10497944;28;20044;-78
2023/02/19 22:33:39;;;;;;;1.13;0.95;;;;;;;;;;10485668;28;20040;-80
2023/02/19 22:38:42;;;;;;;2.88;0.90;;;;;;;;;;10489518;28;20049;-78
2023/02/19 22:43:45;;;;;;;1.90;0.85;;;;;;;;;;10492472;28;20043;-77
2023/02/19 22:48:50;;;;;;;2.70;1.30;;;;;;;;;;10489244;28;20098;-78
2023/02/19 22:53:53;;;;;;;4.57;0.88;;;;;;;;;;10489498;28;20064;-78
2023/02/19 22:58:57;;;;;;;3.83;0.87;;;;;;;;;;10489648;28;20490;-78
2023/02/19 23:04:01;;;;;;;4.82;1.25;;;;;;;;;;10482456;28;20067;-77
2023/02/19 23:09:05;;;;;;;2.13;0.98;;;;;;;;;;10486692;28;20045;-79
2023/02/19 23:14:10;;;;;;;2.08;0.80;;;;;;;;;;10480091;28;20074;-79
2023/02/19 23:19:15;;;;;;;1.00;0.55;;;;;;;;;;10487525;28;20048;-78
2023/02/19 23:24:18;;;;;;;1.98;0.95;;;;;;;;;;10478886;28;20047;-79
2023/02/19 23:29:21;;;;;;;3.78;1.15;;;;;;;;;;10484261;28;20117;-79
2023/02/19 23:34:28;;;;;;;2.63;1.25;;;;;;;;;;10477717;28;20362;-79
2023/02/19 23:39:30;;;;;;;;;;;;;;;;;;10481299;28;20039;-79
2023/02/19 23:44:33;;;;;;;0.60;0.60;;;;;;;;;;10478514;28;19954;-79
2023/02/19 23:49:37;;;;;;;2.58;0.45;;;;;;;;;;10481960;28;20049;-78
2023/02/19 23:54:39;;;;;;;;;;;;;;;;;;10488665;28;20036;-79
2023/02/19 23:59:43;;;;;;;2.83;1.20;;;;;;;;;;10489945;28;19920;-79
